Stanton, MI

8:53 AM EDT on August 30, 2015 (GMT -0400)
MesoWest | | Change Station
CLOSE
Current Station
Personal Weather Station
Location: Six Lakes, MI
Elevation: 951 ft
Nearby Weather Stations

Elev 951 ft 43.35 °N, 85.18 °W | Updated 53 minutes ago

Overcast
Overcast
63.0 °F
Feels Like 63.0 °F
N
2.0
Wind Variable Wind from East
Gusts 0.0 mph

Today
High -- | Low -- °F
--% Chance of Precip.
Yesterday
High -- | Low -- °F
Precip. -- in
7:02 AM 8:19 PM
Full, 99% visible
Pressure 30.07 in
Visibility 1.5 miles
Clouds Overcast 300 ft
Dew Point 63.0 °F
Humidity 100%
Rainfall in
Snow Depth Not available.
UV 0 out of 12
Pollen 9.20 out of 12
Air Quality Not available.
Flu Activity Not available.
METAR KAMN 301230Z AUTO 00000KT 1 1/2SM BR OVC003 19/18 A3007 RMK AO2 T01850183
Pressure 30.07 in
Visibility 1.5 miles
Clouds Overcast 300 ft
Dew Point 63.0 °F
Humidity 100%
Rainfall in
Snow Depth Not available.
UV 0 out of 12
Pollen 9.20 out of 12
Air Quality Not available.
Flu Activity Not available.
METAR KAMN 301230Z AUTO 00000KT 1 1/2SM BR OVC003 19/18 A3007 RMK AO2 T01850183

10-Day Weather Forecast

×

Almanac

Astronomy

Aug. 30, 2015 Rise Set
Actual Time
Civil Twilight
Nautical Twilight
Astronomical Twilight
Moon
Length of Visible Light
Length of Day
Tomorrow will be .
, % of the Moon is Illuminated

Today's Extremes

State Highs State Lows

Community

WunderPhotos

Upload Photos

1,850,940 photos uploaded!

WunderBlogs® & News

Nearby

Air Quality

  Air Quality AQ Index Pollutant
Not available.

Snow Depth

Station Depth Elevation

Earthquake Activity

City Distance Mag. Time & Date
Minimum magnitude displayed is 2.5.

Coastal Water Temperatures

Place Temperature

Stations

Nearby Weather Stations

Station Location Temp. Windchill Dew Point Humidity Wind Precip. Elev Updated Type